Time;durP1;ratioP1;P1;durP2;ratioP2;P2;SDS_P1;SDS_P2;PMS_P1;PMS_P2;Temp;Humidity;BMP_temperature;BMP_pressure;BME280_temperature;BME280_humidity;BME280_pressure;Samples;Min_cycle;Max_cycle;Signal;HPM_P1;HPM_P2
2022/06/30 00:00:03;;;;;;;9.63;6.65;;;17.90;99.90;;;;;;4936508;29;20036;-76
2022/06/30 00:02:28;;;;;;;8.45;6.40;;;17.80;99.90;;;;;;4954204;28;20026;-76
2022/06/30 00:04:54;;;;;;;9.93;6.72;;;17.80;99.90;;;;;;4945186;28;20023;-76
2022/06/30 00:07:20;;;;;;;7.15;6.22;;;17.70;99.90;;;;;;4959086;28;20034;-76
2022/06/30 00:09:45;;;;;;;7.03;6.32;;;17.70;99.90;;;;;;4936750;29;20083;-76
2022/06/30 00:12:14;;;;;;;9.43;6.78;;;17.70;99.90;;;;;;4954168;28;20027;-76
2022/06/30 00:14:39;;;;;;;8.60;6.30;;;17.70;99.90;;;;;;4949264;28;20038;-76
2022/06/30 00:17:05;;;;;;;10.00;6.95;;;17.60;99.90;;;;;;4954058;28;20345;-76
2022/06/30 00:19:35;;;;;;;7.72;6.35;;;17.60;99.90;;;;;;4942106;28;20026;-76
2022/06/30 00:22:01;;;;;;;9.85;6.60;;;17.60;99.90;;;;;;4946376;29;20457;-76
2022/06/30 00:24:28;;;;;;;7.72;6.45;;;17.60;99.90;;;;;;4952307;28;20081;-76
2022/06/30 00:26:54;;;;;;;7.82;6.10;;;17.60;99.90;;;;;;4967355;28;20054;-76
2022/06/30 00:29:20;;;;;;;9.32;5.88;;;17.50;99.90;;;;;;4936229;29;20028;-76
2022/06/30 00:31:47;;;;;;;8.73;6.10;;;17.50;99.90;;;;;;4953252;28;20035;-76
2022/06/30 00:34:13;;;;;;;9.73;6.97;;;17.40;99.90;;;;;;4940148;29;20473;-76
2022/06/30 00:36:38;;;;;;;9.98;6.57;;;17.40;99.90;;;;;;4957120;28;20131;-76
2022/06/30 00:39:06;;;;;;;9.05;5.93;;;17.40;99.90;;;;;;4976795;28;20384;-76
2022/06/30 00:41:32;;;;;;;8.75;6.95;;;17.30;99.90;;;;;;4952489;28;20027;-76
2022/06/30 00:43:57;;;;;;;6.70;6.00;;;17.30;99.90;;;;;;4942343;29;20023;-76
2022/06/30 00:46:23;;;;;;;10.43;6.70;;;17.30;99.90;;;;;;4956932;29;20082;-76
2022/06/30 00:48:49;;;;;;;10.20;7.45;;;17.20;99.90;;;;;;4955537;28;20078;-76
2022/06/30 00:51:14;;;;;;;9.95;7.03;;;17.20;99.90;;;;;;4968275;28;20473;-76
2022/06/30 00:53:41;;;;;;;13.18;6.88;;;17.20;99.90;;;;;;4952899;28;20372;-76
2022/06/30 00:56:09;;;;;;;12.18;7.40;;;17.20;99.90;;;;;;4957044;29;20102;-76
2022/06/30 00:58:38;;;;;;;10.25;7.93;;;17.20;99.90;;;;;;4969308;28;20508;-77
2022/06/30 01:01:06;;;;;;;10.93;7.10;;;17.10;99.90;;;;;;4957654;28;20034;-76
2022/06/30 01:03:36;;;;;;;8.55;7.20;;;17.10;99.90;;;;;;4957011;29;20086;-76
2022/06/30 01:06:05;;;;;;;9.30;7.55;;;17.10;99.90;;;;;;4953171;29;20487;-76
2022/06/30 01:08:32;;;;;;;10.98;7.10;;;17.10;99.90;;;;;;4966773;28;20031;-76
2022/06/30 01:13:47;;;;;;;10.55;7.45;;;17.00;99.90;;;;;;4956957;28;20091;-76
2022/06/30 01:16:19;;;;;;;9.02;7.60;;;17.00;99.90;;;;;;4952557;29;20035;-75
2022/06/30 01:18:47;;;;;;;8.95;6.82;;;17.00;99.90;;;;;;4966877;28;20125;-76
2022/06/30 01:21:17;;;;;;;8.27;7.35;;;17.00;99.90;;;;;;4941919;29;20463;-76
2022/06/30 01:23:46;;;;;;;8.95;7.18;;;17.00;99.90;;;;;;4936876;29;20036;-76
2022/06/30 01:26:12;;;;;;;8.93;7.22;;;17.00;99.90;;;;;;4959197;28;20035;-76
2022/06/30 01:28:37;;;;;;;8.70;6.90;;;16.90;99.90;;;;;;4969932;28;20479;-76
2022/06/30 01:31:03;;;;;;;10.52;6.93;;;17.00;99.90;;;;;;4947718;28;20478;-76
2022/06/30 01:33:28;;;;;;;8.90;6.85;;;16.90;99.90;;;;;;4973281;28;20038;-76
2022/06/30 01:36:00;;;;;;;16.83;8.43;;;16.90;99.90;;;;;;4973095;28;20046;-76
2022/06/30 01:38:25;;;;;;;10.77;7.05;;;16.90;99.90;;;;;;4956385;29;20110;-76
2022/06/30 01:40:51;;;;;;;10.82;7.05;;;16.90;99.90;;;;;;4969426;28;20439;-76
2022/06/30 01:43:17;;;;;;;15.25;6.97;;;16.80;99.90;;;;;;4938483;29;20034;-76
2022/06/30 01:45:42;;;;;;;11.95;6.68;;;16.80;99.90;;;;;;4938753;29;20062;-76
2022/06/30 01:48:11;;;;;;;10.98;6.88;;;16.80;99.90;;;;;;4959952;28;20034;-76
2022/06/30 01:50:37;;;;;;;12.52;6.68;;;16.80;99.90;;;;;;4946910;29;20035;-76
2022/06/30 01:53:03;;;;;;;9.52;7.05;;;16.80;99.90;;;;;;4955887;28;20393;-76
2022/06/30 01:55:29;;;;;;;8.38;6.82;;;16.70;99.90;;;;;;4956033;28;20030;-76
2022/06/30 01:57:57;;;;;;;11.50;6.95;;;16.70;99.90;;;;;;4969397;28;20129;-76
2022/06/30 02:00:28;;;;;;;11.13;7.38;;;16.70;99.90;;;;;;4955730;28;20030;-76
2022/06/30 02:02:56;;;;;;;10.65;6.75;;;16.70;99.90;;;;;;4938415;29;20031;-76
2022/06/30 02:05:23;;;;;;;8.48;6.43;;;16.70;99.90;;;;;;4955968;29;20033;-76
2022/06/30 02:07:49;;;;;;;9.45;7.05;;;16.60;99.90;;;;;;4950916;28;20030;-76
2022/06/30 02:10:19;;;;;;;10.07;6.90;;;16.60;99.90;;;;;;4957346;28;20537;-76
2022/06/30 02:12:45;;;;;;;10.32;6.78;;;16.60;99.90;;;;;;4947094;29;20039;-76
2022/06/30 02:15:18;;;;;;;11.65;6.57;;;16.50;99.90;;;;;;4938085;28;20090;-76
2022/06/30 02:17:47;;;;;;;8.15;7.00;;;16.50;99.90;;;;;;4965106;28;20031;-76
2022/06/30 02:20:21;;;;;;;9.23;6.82;;;16.50;99.90;;;;;;4941204;28;20027;-76
2022/06/30 02:22:48;;;;;;;8.10;6.72;;;16.50;99.90;;;;;;4947942;29;20024;-76
2022/06/30 02:25:16;;;;;;;10.30;6.65;;;16.40;99.90;;;;;;4966807;28;20109;-76
2022/06/30 02:27:44;;;;;;;11.35;6.80;;;16.50;99.90;;;;;;4966292;28;20049;-76
2022/06/30 02:30:10;;;;;;;9.07;6.50;;;16.40;99.90;;;;;;4967611;28;20027;-76
2022/06/30 02:32:38;;;;;;;11.70;6.78;;;16.40;99.90;;;;;;4967645;28;20031;-76
2022/06/30 02:35:04;;;;;;;13.20;6.90;;;16.40;99.90;;;;;;4966076;28;20101;-77
2022/06/30 02:37:30;;;;;;;9.40;7.10;;;16.40;99.90;;;;;;4970131;28;20031;-76
2022/06/30 02:39:56;;;;;;;9.38;6.40;;;16.40;99.90;;;;;;4951003;29;20032;-76
2022/06/30 02:42:22;;;;;;;9.57;6.90;;;16.40;99.90;;;;;;4950871;28;20026;-76
2022/06/30 02:44:47;;;;;;;9.73;5.93;;;16.30;99.90;;;;;;4944953;28;20033;-76
2022/06/30 02:47:15;;;;;;;9.77;6.40;;;16.30;99.90;;;;;;4943197;29;20035;-76
2022/06/30 02:49:41;;;;;;;10.50;6.63;;;16.30;99.90;;;;;;4947095;28;20073;-76
2022/06/30 02:52:07;;;;;;;10.60;6.82;;;16.30;99.90;;;;;;4973942;28;20026;-76
2022/06/30 02:54:33;;;;;;;7.88;7.05;;;16.20;99.90;;;;;;4960263;28;20535;-76
2022/06/30 02:56:59;;;;;;;12.30;6.78;;;16.20;99.90;;;;;;4973793;28;20058;-76
2022/06/30 02:59:25;;;;;;;8.68;6.63;;;16.20;99.90;;;;;;4940888;29;20082;-76
2022/06/30 03:01:50;;;;;;;9.07;6.40;;;16.10;99.90;;;;;;4962649;28;20030;-76
2022/06/30 03:04:16;;;;;;;11.30;6.80;;;16.10;99.90;;;;;;4960024;28;20081;-76
2022/06/30 03:06:42;;;;;;;9.05;6.68;;;16.10;99.90;;;;;;4943588;29;20019;-76
2022/06/30 03:09:08;;;;;;;11.52;6.53;;;16.10;99.90;;;;;;4954355;28;20023;-76
2022/06/30 03:11:36;;;;;;;13.93;7.22;;;16.10;99.90;;;;;;4954233;28;20039;-76
2022/06/30 03:14:01;;;;;;;9.48;6.63;;;16.10;99.90;;;;;;4937216;29;20035;-76
2022/06/30 03:16:27;;;;;;;8.30;6.10;;;16.10;99.90;;;;;;4952776;28;20031;-75
2022/06/30 03:18:53;;;;;;;7.55;6.13;;;16.10;99.90;;;;;;4948160;29;20397;-76
2022/06/30 03:21:22;;;;;;;9.05;6.07;;;16.10;99.90;;;;;;4953972;28;20027;-76
2022/06/30 03:23:48;;;;;;;9.20;6.20;;;16.10;99.90;;;;;;4948296;28;20019;-75
2022/06/30 03:26:14;;;;;;;10.75;6.47;;;16.00;99.90;;;;;;4961032;28;20484;-75
2022/06/30 03:28:39;;;;;;;9.40;7.03;;;16.00;99.90;;;;;;4950577;29;20038;-76
2022/06/30 03:31:05;;;;;;;9.13;6.22;;;16.00;99.90;;;;;;4964877;28;20046;-76
2022/06/30 03:33:31;;;;;;;12.45;6.47;;;16.00;99.90;;;;;;4940753;29;20488;-75
2022/06/30 03:36:00;;;;;;;9.07;6.15;;;16.00;99.90;;;;;;4950230;29;20028;-76
2022/06/30 03:38:25;;;;;;;7.97;6.22;;;16.00;99.90;;;;;;4953164;28;20043;-76
2022/06/30 03:40:51;;;;;;;9.63;6.22;;;16.00;99.90;;;;;;4939772;28;20118;-76
2022/06/30 03:43:17;;;;;;;12.35;7.47;;;15.90;99.90;;;;;;4947241;29;20082;-76
2022/06/30 03:45:43;;;;;;;12.32;10.13;;;15.90;99.90;;;;;;4955560;28;20023;-76
2022/06/30 03:48:08;;;;;;;14.63;11.18;;;15.90;99.90;;;;;;4966474;28;20481;-76
2022/06/30 03:50:34;;;;;;;17.02;12.68;;;16.00;99.90;;;;;;4949625;28;20062;-76
2022/06/30 03:53:01;;;;;;;14.55;9.68;;;16.00;99.90;;;;;;4937358;29;20037;-76
2022/06/30 03:55:27;;;;;;;13.68;8.40;;;16.00;99.90;;;;;;4947742;28;20031;-75
2022/06/30 03:57:53;;;;;;;12.18;9.02;;;16.00;99.90;;;;;;4938757;29;20027;-76
2022/06/30 04:00:19;;;;;;;8.30;6.95;;;16.00;99.90;;;;;;4953886;29;20031;-76
2022/06/30 04:02:47;;;;;;;8.57;5.53;;;16.00;99.90;;;;;;4936396;29;20159;-76
2022/06/30 04:05:13;;;;;;;8.77;5.40;;;16.00;99.90;;;;;;4961261;28;20034;-76
2022/06/30 04:07:43;;;;;;;9.23;5.55;;;16.00;99.90;;;;;;4945082;28;20028;-76
2022/06/30 04:10:12;;;;;;;7.82;5.70;;;16.00;99.90;;;;;;4957452;29;20024;-76
2022/06/30 04:12:38;;;;;;;10.02;5.50;;;16.10;99.90;;;;;;4956142;29;20145;-76
2022/06/30 04:15:05;;;;;;;12.45;6.00;;;16.10;99.90;;;;;;4937980;29;20031;-74
2022/06/30 04:17:34;;;;;;;9.93;6.75;;;16.20;99.90;;;;;;4951193;29;20027;-74
2022/06/30 04:20:04;;;;;;;8.73;6.47;;;16.20;99.90;;;;;;4948547;29;20031;-74
2022/06/30 04:22:30;;;;;;;11.02;7.03;;;16.30;99.90;;;;;;4945533;29;20039;-74
2022/06/30 04:24:56;;;;;;;10.43;6.10;;;16.30;99.90;;;;;;4949732;28;20078;-74
2022/06/30 04:27:22;;;;;;;8.32;5.78;;;16.40;99.90;;;;;;4954592;29;20078;-74
2022/06/30 04:29:47;;;;;;;8.95;5.80;;;16.40;99.90;;;;;;4932244;28;20122;-75
2022/06/30 04:34:57;;;;;;;9.65;6.03;;;16.60;99.90;;;;;;4948375;29;20070;-74
2022/06/30 04:37:22;;;;;;;11.50;6.30;;;16.60;99.90;;;;;;4951029;28;20047;-74
2022/06/30 04:39:48;;;;;;;8.30;6.03;;;16.70;99.90;;;;;;4949667;29;20031;-74
2022/06/30 04:42:13;;;;;;;11.25;5.60;;;16.70;99.90;;;;;;4950238;28;20094;-74
2022/06/30 04:44:39;;;;;;;9.73;6.40;;;16.70;99.90;;;;;;4953313;29;20106;-74
2022/06/30 04:47:05;;;;;;;6.60;5.70;;;16.70;99.90;;;;;;4953718;29;20101;-74
2022/06/30 04:49:30;;;;;;;12.95;6.05;;;16.80;99.90;;;;;;4951999;29;20027;-74
2022/06/30 04:51:56;;;;;;;7.47;5.82;;;16.80;99.90;;;;;;4954044;28;20035;-74
2022/06/30 04:54:22;;;;;;;11.93;6.30;;;16.80;99.90;;;;;;4953048;29;20038;-74
2022/06/30 04:56:47;;;;;;;9.90;6.13;;;16.90;99.90;;;;;;4953880;28;20457;-74
2022/06/30 04:59:13;;;;;;;9.98;6.35;;;17.00;99.90;;;;;;4954960;29;20111;-74
2022/06/30 05:01:38;;;;;;;6.78;5.43;;;17.10;99.90;;;;;;4951851;29;20035;-75
2022/06/30 05:04:09;;;;;;;12.63;5.32;;;17.10;99.90;;;;;;4952404;29;20035;-74
2022/06/30 05:06:35;;;;;;;6.78;4.80;;;17.20;99.90;;;;;;4949893;29;20028;-77
2022/06/30 05:09:00;;;;;;;8.38;5.35;;;17.30;99.90;;;;;;4954662;29;20468;-69
2022/06/30 05:11:26;;;;;;;8.15;4.80;;;17.50;99.90;;;;;;4953578;29;20399;-69
2022/06/30 05:13:51;;;;;;;5.47;4.60;;;17.60;99.90;;;;;;4945708;28;20094;-69
2022/06/30 05:16:17;;;;;;;4.85;4.30;;;17.70;99.90;;;;;;4952566;28;20053;-69
2022/06/30 05:18:42;;;;;;;6.95;4.50;;;17.80;99.90;;;;;;4950694;28;20042;-68
2022/06/30 05:21:08;;;;;;;6.60;4.30;;;17.90;99.90;;;;;;4948799;28;20027;-68
2022/06/30 05:23:33;;;;;;;8.50;4.63;;;18.10;99.90;;;;;;4948327;28;20024;-70
2022/06/30 05:28:43;;;;;;;6.93;4.28;;;18.30;99.90;;;;;;4950496;28;20097;-70
2022/06/30 05:31:09;;;;;;;6.85;4.35;;;18.50;99.90;;;;;;4954928;28;20026;-70
2022/06/30 05:33:34;;;;;;;7.30;4.00;;;18.60;99.90;;;;;;4951456;28;20039;-70
2022/06/30 05:36:00;;;;;;;8.43;4.53;;;18.70;99.90;;;;;;4952257;28;20125;-70
2022/06/30 05:38:26;;;;;;;7.75;4.25;;;18.80;99.90;;;;;;4949923;28;20469;-70
2022/06/30 05:40:52;;;;;;;6.78;4.25;;;18.90;99.90;;;;;;4956672;28;20038;-70
2022/06/30 05:43:18;;;;;;;8.07;3.75;;;19.10;99.90;;;;;;4950991;28;20472;-70
2022/06/30 05:45:50;;;;;;;6.55;3.65;;;19.20;99.90;;;;;;4953399;28;20031;-70
2022/06/30 05:48:16;;;;;;;8.40;3.75;;;19.30;99.90;;;;;;4957768;28;20090;-70
2022/06/30 05:50:42;;;;;;;6.50;4.05;;;19.40;99.90;;;;;;4954804;28;20023;-68
2022/06/30 05:53:07;;;;;;;6.45;3.70;;;19.60;99.90;;;;;;4958793;28;20038;-69
2022/06/30 05:55:33;;;;;;;6.43;4.25;;;19.70;99.90;;;;;;4967459;28;20073;-69
2022/06/30 05:58:06;;;;;;;6.75;4.03;;;19.80;99.90;;;;;;4959518;28;20137;-69
2022/06/30 06:00:32;;;;;;;8.88;4.40;;;20.00;99.90;;;;;;4957344;28;20085;-68
2022/06/30 06:02:58;;;;;;;8.40;5.13;;;20.10;99.90;;;;;;4956709;28;20024;-69
2022/06/30 06:05:24;;;;;;;5.05;4.05;;;20.10;99.90;;;;;;4958983;28;20062;-69
2022/06/30 06:07:51;;;;;;;6.55;4.00;;;20.20;99.90;;;;;;4944180;28;20484;-68
2022/06/30 06:10:17;;;;;;;7.28;4.18;;;20.30;99.90;;;;;;4956052;28;20034;-68
2022/06/30 06:12:43;;;;;;;9.48;4.30;;;20.40;99.90;;;;;;4963151;28;20113;-68
2022/06/30 06:15:13;;;;;;;11.73;4.20;;;20.50;99.90;;;;;;4955970;28;20031;-68
2022/06/30 06:17:44;;;;;;;6.15;3.67;;;20.60;99.90;;;;;;4952966;28;20443;-69
2022/06/30 06:20:11;;;;;;;7.53;3.78;;;20.70;99.90;;;;;;4959468;28;20101;-69
2022/06/30 06:22:37;;;;;;;8.45;4.22;;;20.90;99.90;;;;;;4950908;28;20432;-69
2022/06/30 06:25:03;;;;;;;6.75;4.22;;;20.90;99.90;;;;;;4954009;28;20077;-68
2022/06/30 06:27:29;;;;;;;7.28;3.35;;;21.00;99.90;;;;;;4954349;28;20059;-68
2022/06/30 06:29:54;;;;;;;7.75;3.35;;;21.10;99.90;;;;;;4957610;28;20035;-68
2022/06/30 06:32:22;;;;;;;8.30;3.80;;;21.20;99.90;;;;;;4953235;28;20031;-68
2022/06/30 06:34:47;;;;;;;5.75;3.30;;;21.40;99.90;;;;;;4951061;28;20023;-69
2022/06/30 06:37:13;;;;;;;12.35;3.47;;;21.50;99.90;;;;;;4949141;28;20528;-68
2022/06/30 06:39:38;;;;;;;8.00;3.63;;;21.50;99.90;;;;;;4940653;28;20492;-69
2022/06/30 06:42:04;;;;;;;6.97;3.35;;;21.70;99.90;;;;;;4947254;28;20023;-68
2022/06/30 06:44:30;;;;;;;8.52;4.30;;;21.80;99.90;;;;;;4953773;28;20122;-68
2022/06/30 06:46:55;;;;;;;6.43;3.50;;;21.90;99.90;;;;;;4948928;28;20047;-69
2022/06/30 06:49:21;;;;;;;11.45;3.53;;;22.00;99.90;;;;;;4946380;28;20475;-69
2022/06/30 06:51:46;;;;;;;8.18;3.65;;;22.20;99.90;;;;;;4950515;28;20032;-69
2022/06/30 06:54:12;;;;;;;9.23;4.78;;;22.30;99.90;;;;;;4927207;28;20509;-69
2022/06/30 06:56:37;;;;;;;8.55;4.13;;;22.40;99.90;;;;;;4950088;28;20098;-68
2022/06/30 06:59:03;;;;;;;10.50;4.65;;;22.60;99.90;;;;;;4949103;28;20027;-69
2022/06/30 07:01:29;;;;;;;11.38;3.97;;;22.70;99.90;;;;;;4949699;28;20945;-69
2022/06/30 07:03:55;;;;;;;9.30;4.20;;;22.80;99.90;;;;;;4949967;28;20517;-68
2022/06/30 07:06:21;;;;;;;9.73;4.55;;;22.90;99.90;;;;;;4951109;28;20087;-69
2022/06/30 07:08:46;;;;;;;15.82;4.40;;;22.90;99.90;;;;;;4943232;28;20090;-69
2022/06/30 07:11:12;;;;;;;8.90;4.13;;;22.90;99.90;;;;;;4949677;28;20024;-69
2022/06/30 07:13:38;;;;;;;9.60;3.72;;;22.90;99.90;;;;;;4940316;28;20059;-69
2022/06/30 07:16:04;;;;;;;6.72;3.55;;;23.10;99.90;;;;;;4950318;28;20073;-69
2022/06/30 07:18:30;;;;;;;8.23;3.47;;;23.10;99.90;;;;;;4942797;28;20484;-69
2022/06/30 07:20:55;;;;;;;7.85;3.55;;;23.20;99.90;;;;;;4939138;28;20038;-69
2022/06/30 07:23:21;;;;;;;7.15;3.30;;;23.30;99.90;;;;;;4947172;28;20027;-70
2022/06/30 07:25:46;;;;;;;6.05;3.33;;;23.30;99.90;;;;;;4947057;28;20366;-69
2022/06/30 07:28:12;;;;;;;12.50;4.03;;;23.40;99.90;;;;;;4949187;28;20062;-69
2022/06/30 07:30:38;;;;;;;10.40;3.83;;;23.40;99.90;;;;;;4942174;28;20039;-69
2022/06/30 07:33:04;;;;;;;10.00;3.80;;;23.50;99.90;;;;;;4952370;28;20035;-69
2022/06/30 07:35:30;;;;;;;8.77;3.42;;;23.50;99.90;;;;;;4940207;28;20132;-69
2022/06/30 07:37:55;;;;;;;6.07;3.00;;;23.60;99.90;;;;;;4950538;28;20031;-69
2022/06/30 07:40:21;;;;;;;7.32;3.00;;;23.60;99.90;;;;;;4950827;28;20034;-69
2022/06/30 07:42:48;;;;;;;5.05;3.28;;;23.70;99.90;;;;;;4967140;28;20023;-69
2022/06/30 07:45:14;;;;;;;7.50;3.20;;;23.70;99.90;;;;;;4954862;29;20024;-69
2022/06/30 07:47:39;;;;;;;6.47;3.20;;;23.80;99.90;;;;;;4954873;28;20049;-69
2022/06/30 07:50:07;;;;;;;8.43;3.70;;;23.80;99.90;;;;;;4956115;28;20039;-78
2022/06/30 07:52:33;;;;;;;5.97;3.53;;;23.90;99.90;;;;;;4953000;28;20033;-78
2022/06/30 07:55:00;;;;;;;10.55;3.80;;;24.00;99.90;;;;;;4955900;29;20050;-78
2022/06/30 07:57:27;;;;;;;5.50;3.53;;;24.00;99.90;;;;;;4950674;29;20028;-77
2022/06/30 07:59:53;;;;;;;11.45;4.35;;;24.00;99.90;;;;;;4933748;29;20051;-78
2022/06/30 08:02:18;;;;;;;7.82;3.72;;;24.00;99.90;;;;;;4960886;28;20027;-78
2022/06/30 08:04:44;;;;;;;12.77;4.57;;;24.00;99.90;;;;;;4956030;28;20034;-78
2022/06/30 08:07:09;;;;;;;10.55;4.50;;;24.10;99.90;;;;;;4957024;28;20157;-77
2022/06/30 08:09:35;;;;;;;10.50;4.00;;;24.10;99.90;;;;;;4944918;29;20066;-78
2022/06/30 08:12:01;;;;;;;7.22;3.47;;;24.20;99.90;;;;;;4955475;28;20027;-78
2022/06/30 08:14:26;;;;;;;9.75;4.15;;;24.20;99.90;;;;;;4955452;29;20435;-78
2022/06/30 08:16:52;;;;;;;8.85;3.90;;;24.20;99.90;;;;;;4933981;29;20015;-77
2022/06/30 08:19:19;;;;;;;8.85;3.45;;;24.30;99.90;;;;;;4957653;28;20074;-77
2022/06/30 08:21:45;;;;;;;7.95;4.32;;;24.30;99.90;;;;;;4955700;28;20103;-77
2022/06/30 08:24:11;;;;;;;8.60;5.97;;;24.40;99.90;;;;;;4950843;28;20024;-76
2022/06/30 08:26:36;;;;;;;7.38;3.70;;;24.40;99.90;;;;;;4951505;28;20503;-76
2022/06/30 08:29:02;;;;;;;6.40;3.42;;;24.40;99.90;;;;;;4961890;28;20039;-76
2022/06/30 08:31:28;;;;;;;7.93;3.35;;;24.40;99.90;;;;;;4967749;28;20023;-76
2022/06/30 08:33:54;;;;;;;7.63;3.38;;;24.40;99.90;;;;;;4958945;28;20041;-77
2022/06/30 08:36:21;;;;;;;6.45;3.70;;;24.50;99.90;;;;;;4964945;28;20054;-77
2022/06/30 08:38:47;;;;;;;10.77;4.10;;;24.60;99.90;;;;;;4960787;28;20035;-77
2022/06/30 08:43:59;;;;;;;9.75;3.50;;;24.70;99.90;;;;;;4960673;28;20042;-78
2022/06/30 08:46:27;;;;;;;6.97;3.00;;;24.80;99.90;;;;;;4962111;28;20528;-75
2022/06/30 08:48:54;;;;;;;6.82;3.65;;;24.90;99.90;;;;;;4947969;28;20039;-76
2022/06/30 08:51:20;;;;;;;19.27;3.50;;;24.90;99.90;;;;;;4934720;29;20034;-75
2022/06/30 08:53:55;;;;;;;7.47;3.45;;;24.90;99.90;;;;;;4934880;29;20057;-75
2022/06/30 08:56:22;;;;;;;6.60;3.50;;;25.10;99.90;;;;;;4952620;29;20027;-76
2022/06/30 08:58:50;;;;;;;7.43;3.63;;;25.10;99.90;;;;;;4934572;29;20042;-76
2022/06/30 09:01:16;;;;;;;6.88;3.25;;;25.20;99.90;;;;;;4952612;28;20032;-76
2022/06/30 09:03:42;;;;;;;6.45;3.58;;;25.20;99.90;;;;;;4922014;29;20376;-76
2022/06/30 09:06:08;;;;;;;11.88;3.70;;;25.40;99.90;;;;;;4937402;28;20023;-76
2022/06/30 09:08:33;;;;;;;9.52;3.67;;;25.40;99.90;;;;;;4938759;28;20032;-76
2022/06/30 09:10:59;;;;;;;8.85;3.30;;;25.50;99.90;;;;;;4921590;29;20616;-76
2022/06/30 09:13:25;;;;;;;7.05;3.70;;;25.60;99.90;;;;;;4962181;28;20114;-75
2022/06/30 09:15:51;;;;;;;13.73;4.15;;;25.70;99.90;;;;;;4934623;29;20504;-75
2022/06/30 09:18:29;;;;;;;9.27;3.80;;;25.70;99.90;;;;;;4953758;28;20066;-75
2022/06/30 09:20:56;;;;;;;7.68;3.53;;;25.80;99.90;;;;;;4951622;29;20027;-75
2022/06/30 09:23:27;;;;;;;7.90;3.15;;;25.80;99.90;;;;;;4943681;29;20034;-75
2022/06/30 09:25:58;;;;;;;7.22;3.60;;;25.90;99.90;;;;;;4950633;28;20071;-75
2022/06/30 09:28:44;;;;;;;5.70;3.47;;;26.00;99.90;;;;;;4955125;28;20035;-75
2022/06/30 09:31:11;;;;;;;8.07;3.72;;;26.10;99.90;;;;;;4950516;29;20059;-76
2022/06/30 09:33:41;;;;;;;11.00;3.75;;;26.20;99.90;;;;;;4950726;28;20039;-76
2022/06/30 09:36:21;;;;;;;11.15;3.20;;;26.30;99.90;;;;;;4948618;28;20034;-77
2022/06/30 09:39:03;;;;;;;5.40;3.20;;;26.50;99.90;;;;;;4949179;28;20158;-76
2022/06/30 09:41:30;;;;;;;6.90;3.50;;;26.60;99.90;;;;;;4952951;28;20019;-75
2022/06/30 09:43:56;;;;;;;7.32;3.33;;;26.80;99.90;;;;;;4953180;28;20404;-76
2022/06/30 09:46:22;;;;;;;6.20;3.13;;;27.10;99.90;;;;;;4952854;28;20027;-75
2022/06/30 09:48:50;;;;;;;6.82;2.97;;;27.40;99.90;;;;;;4948966;28;20027;-76
2022/06/30 09:51:19;;;;;;;7.40;3.38;;;27.50;99.90;;;;;;4935004;29;20062;-75
2022/06/30 09:54:06;;;;;;;5.53;3.30;;;27.80;99.90;;;;;;4949822;28;20362;-75
2022/06/30 09:56:32;;;;;;;7.63;3.20;;;28.10;99.90;;;;;;4938592;28;20077;-76
2022/06/30 09:58:58;;;;;;;5.63;3.30;;;28.20;99.90;;;;;;4951417;28;20031;-76
2022/06/30 10:01:23;;;;;;;7.30;3.17;;;28.40;99.90;;;;;;4954902;28;20066;-75
2022/06/30 10:03:59;;;;;;;7.03;2.97;;;28.80;99.90;;;;;;4951292;28;20130;-76
2022/06/30 10:06:25;;;;;;;5.68;2.78;;;28.90;99.90;;;;;;4936633;28;20050;-75
2022/06/30 10:08:53;;;;;;;6.97;2.90;;;29.00;99.90;;;;;;4950865;28;20043;-76
2022/06/30 10:11:19;;;;;;;6.95;3.05;;;29.10;99.90;;;;;;4931301;29;20039;-75
2022/06/30 10:13:46;;;;;;;9.10;3.50;;;29.40;99.90;;;;;;4952149;28;20089;-76
2022/06/30 10:16:15;;;;;;;8.10;2.97;;;29.40;99.90;;;;;;4952670;28;20028;-76
2022/06/30 10:18:40;;;;;;;6.35;2.83;;;29.20;99.90;;;;;;4951710;28;20035;-76
2022/06/30 10:21:08;;;;;;;10.43;3.13;;;29.00;99.90;;;;;;4956972;28;20038;-76
2022/06/30 10:23:34;;;;;;;5.22;2.70;;;29.00;99.90;;;;;;4949764;29;20031;-76
2022/06/30 10:26:00;;;;;;;5.20;3.03;;;29.10;99.90;;;;;;4950139;28;20038;-76
2022/06/30 10:28:30;;;;;;;10.23;2.78;;;29.30;99.90;;;;;;4953054;28;20027;-76
2022/06/30 10:31:10;;;;;;;5.80;2.88;;;29.50;99.90;;;;;;4956189;28;20058;-76
2022/06/30 10:33:44;;;;;;;8.02;2.70;;;29.50;99.90;;;;;;4951187;29;20077;-76
2022/06/30 10:36:30;;;;;;;10.90;3.42;;;29.70;99.90;;;;;;4952882;28;20027;-77
2022/06/30 10:39:44;;;;;;;4.50;2.35;;;29.70;99.90;;;;;;4947939;28;20038;-76
2022/06/30 10:42:10;;;;;;;6.20;2.93;;;29.90;99.90;;;;;;4910024;29;20508;-76
2022/06/30 10:44:36;;;;;;;6.40;2.70;;;30.00;99.90;;;;;;4942354;28;20126;-75
2022/06/30 10:47:04;;;;;;;8.13;2.67;;;30.10;99.90;;;;;;4947910;28;20118;-75
2022/06/30 10:49:29;;;;;;;7.30;2.60;;;30.00;99.90;;;;;;4950627;29;20026;-68
2022/06/30 10:52:25;;;;;;;6.20;2.60;;;29.90;99.90;;;;;;4949734;28;20031;-75
2022/06/30 10:54:59;;;;;;;12.02;2.80;;;29.90;99.90;;;;;;4937423;29;20035;-75
2022/06/30 10:57:25;;;;;;;6.88;2.63;;;30.10;99.90;;;;;;4948936;28;20105;-76
2022/06/30 10:59:51;;;;;;;4.97;2.67;;;30.30;99.90;;;;;;4948575;28;20023;-77
2022/06/30 11:02:20;;;;;;;5.60;2.60;;;30.40;99.90;;;;;;4955120;28;20039;-76
2022/06/30 11:04:49;;;;;;;5.38;2.35;;;30.40;99.90;;;;;;4949440;29;20122;-75
2022/06/30 11:07:23;;;;;;;6.15;2.53;;;30.50;99.90;;;;;;4947844;28;20043;-75
2022/06/30 11:09:51;;;;;;;8.90;2.72;;;30.80;99.90;;;;;;4949910;29;20036;-74
2022/06/30 11:12:29;;;;;;;4.50;2.22;;;30.90;99.90;;;;;;4952473;28;20032;-76
2022/06/30 11:14:57;;;;;;;11.68;3.08;;;30.70;99.90;;;;;;4949281;29;20050;-75
2022/06/30 11:17:28;;;;;;;6.32;3.47;;;30.80;99.90;;;;;;4949209;29;20027;-75
2022/06/30 11:20:07;;;;;;;11.65;3.25;;;30.70;99.90;;;;;;4949748;29;20038;-75
2022/06/30 11:22:33;;;;;;;5.78;2.70;;;30.80;99.90;;;;;;4946038;28;20401;-75
2022/06/30 11:25:05;;;;;;;6.35;2.50;;;31.10;99.90;;;;;;4934536;29;20481;-76
2022/06/30 11:27:33;;;;;;;7.38;2.80;;;31.00;99.90;;;;;;4949640;29;20116;-75
2022/06/30 11:30:02;;;;;;;7.80;2.70;;;31.10;99.90;;;;;;4960004;28;20038;-75
2022/06/30 11:32:28;;;;;;;8.45;2.95;;;31.10;99.90;;;;;;4932244;29;20035;-76
2022/06/30 11:34:54;;;;;;;9.57;3.13;;;31.30;99.90;;;;;;4949820;28;20033;-75
2022/06/30 11:37:26;;;;;;;9.32;2.92;;;31.40;99.90;;;;;;4950674;28;20063;-75
2022/06/30 11:40:05;;;;;;;6.68;3.80;;;31.70;99.90;;;;;;4952074;28;20027;-75
2022/06/30 11:42:31;;;;;;;8.45;3.72;;;31.80;99.90;;;;;;4950242;28;20124;-76
2022/06/30 11:44:57;;;;;;;8.98;2.75;;;32.00;99.90;;;;;;4946269;28;20044;-76
2022/06/30 11:47:24;;;;;;;6.35;2.40;;;32.00;99.90;;;;;;4946022;28;20042;-78
2022/06/30 11:49:59;;;;;;;8.73;3.03;;;32.10;99.90;;;;;;4951101;28;20035;-78
2022/06/30 11:52:28;;;;;;;11.60;2.80;;;32.00;99.90;;;;;;4957417;28;20038;-77
2022/06/30 11:55:15;;;;;;;8.05;3.10;;;31.50;99.90;;;;;;4957882;28;20031;-77
2022/06/30 11:57:42;;;;;;;7.60;2.50;;;31.50;99.90;;;;;;4950997;28;20484;-76
2022/06/30 12:00:17;;;;;;;7.10;2.50;;;31.50;99.90;;;;;;4950928;28;20119;-77
2022/06/30 12:02:45;;;;;;;6.63;2.67;;;31.60;99.90;;;;;;4943580;28;20473;-77
2022/06/30 12:05:16;;;;;;;4.80;2.35;;;31.60;99.90;;;;;;4953063;29;20028;-77
2022/06/30 12:07:43;;;;;;;6.57;2.47;;;31.80;99.90;;;;;;4953097;28;20023;-77
2022/06/30 12:10:11;;;;;;;5.43;2.95;;;31.80;99.90;;;;;;4952548;28;20464;-76
2022/06/30 12:12:38;;;;;;;8.20;2.67;;;31.90;99.90;;;;;;4952302;28;20388;-77
2022/06/30 12:15:06;;;;;;;7.20;2.80;;;32.10;99.90;;;;;;4952141;29;20030;-76
2022/06/30 12:17:40;;;;;;;7.40;2.47;;;32.20;99.90;;;;;;4950373;29;20028;-76
2022/06/30 12:20:08;;;;;;;6.43;2.67;;;32.50;99.90;;;;;;4951036;28;20031;-76
2022/06/30 12:22:38;;;;;;;6.85;2.30;;;32.70;99.90;;;;;;4945565;29;20031;-76
2022/06/30 12:25:05;;;;;;;8.63;2.67;;;32.60;99.90;;;;;;4943900;29;20027;-77
2022/06/30 12:27:40;;;;;;;4.22;2.47;;;32.70;99.90;;;;;;4934565;29;20051;-75
2022/06/30 12:30:13;;;;;;;8.30;2.63;;;32.80;99.90;;;;;;4953242;29;20159;-75
2022/06/30 12:32:39;;;;;;;4.60;2.53;;;32.80;99.90;;;;;;4953390;28;20114;-76
2022/06/30 12:35:11;;;;;;;8.05;2.42;;;32.60;99.90;;;;;;4951747;28;20166;-76
2022/06/30 12:37:44;;;;;;;6.32;2.17;;;32.70;99.80;;;;;;4951743;29;20519;-76
2022/06/30 12:40:12;;;;;;;7.67;2.60;;;32.90;99.90;;;;;;4952100;29;20112;-76
2022/06/30 12:42:56;;;;;;;6.03;2.70;;;33.30;97.70;;;;;;4951543;29;20031;-76
2022/06/30 12:45:34;;;;;;;7.80;2.03;;;33.20;98.10;;;;;;4951685;28;20377;-76
2022/06/30 12:48:01;;;;;;;7.75;2.22;;;33.30;96.80;;;;;;4938316;29;20042;-76
2022/06/30 12:50:26;;;;;;;7.10;2.30;;;33.10;96.90;;;;;;4954524;28;20055;-77
2022/06/30 12:52:52;;;;;;;11.13;2.65;;;33.00;95.80;;;;;;4934399;28;20424;-76
2022/06/30 12:55:17;;;;;;;4.75;2.08;;;33.00;96.90;;;;;;4952157;28;20035;-75